Pagina principală
METAR-TAF:

METAR-TAF

Aeroporturi :

Sandpoint Airport (Dave Wall Field)

Sandpoint, Idaho, Statele Unite ale Americii

Latitudine: 48-17-58N, longitudine: 116-33-36W, elevație: 648 m

Observații meteo curente

Raportul a fost făcut în urmă cu 25 de minute, la 13:35 UTC
Vânt calm
Temperatură 7°C
Umiditate 76%
Presiune 1011 hPa
Vizibilitate: 16.1 km
Cer senin

METAR: KSZT 151335Z AUTO 00000KT 10SM CLR 07/03 A2985 RMK AO2

Ora: 07:00 (14:00 UTC)


TAF: lipsă

Observații și prognoze meteo pentru peste 4.000 de aeroporturi (rapoarte METAR și TAF).

Stațiile disponibile sunt reprezentate pe hartă prin puncte galbene și roșii.

Țineți indicatorul mouse-ului pe punctul dorit pentru a vedea denumirea stației.

Apoi, faceți clic pentru a vedea observațiile și prognozele meteorologice.

Pentru a schimba harta: Pentru mărire, faceți clic pe butoanele verzi cu cruce neagră; pentru micșorare, pe butonul verde cu o liniuță; pentru hărți învecinate, pe săgețile verzi.


METAR-TAF: